Terminal Aerodrome Forecast
Issued by NWS Cleveland, OH

Home | Current Version | Previous Version | Graphics & Text | Print | Product List | Glossary Off
Versions: 1 2 3 4 5 6 7 8 9 10 11 12 13 14 15 16 17 18 19 20 21 22

249
FTUS41 KCLE 122341
TAFCAK
TAF
KCAK 122341Z 1300/1324 30012KT 6SM -SHSN BKN015
      TEMPO 1300/1302 30015G25KT 3/4SM -SHSN OVC008
     FM130300 29012KT P6SM VCSH OVC035
     FM131200 27010KT P6SM OVC025
     FM132000 20008KT 3SM -SN OVC015=

USA.gov is the U.S. government's official web portal to all federal, state and local government web resources and services.